Tiempo atmosférico en la estación meteorológica de Somosierra, Madrid (1450 m.)



Fecha
DESCASC
Temp. máxima en grados centígrados (hora)
DESCASC
Temp. mínima en grados centígrados (hora)
DESCASC
Temp. media en grados centígrados
DESCASC
Racha de viento máxima en m/sg (hora)
DESCASC
Velocidad máxima media en intervalos de 10 minutos(hora)
DESCASC
Precipitaciones diarias en mm
DESCASC
Precipitaciones de 00:00 a 06:00 en mm
DESCASC
Precipitaciones de 06:00 a 12:00 en mm
DESCASC
Precipitaciones de 12:00 a 18:00 en mm
DESCASC
Precipitaciones de 18:00 a 24:00 en mm
DESCASC
26-11-2020 -- (--) -- (--) -- -- (--) -- (--) -- -- 0.5 3.5 0
25-11-2020 -- (--) -- (--) -- -- (--) -- (--) -- -- -- -- --
24-11-2020 -- (--) -- (--) -- -- (--) -- (--) -- -- -- -- --
23-11-2020 -- (--) -- (--) -- -- (--) -- (--) -- -- -- -- --
22-11-2020 -- (--) -- (--) -- -- (--) -- (--) -- -- -- -- --
21-11-2020 -- (--) -- (--) -- -- (--) -- (--) -- -- -- -- --
20-11-2020 -- (--) -- (--) -- -- (--) -- (--) -- -- -- -- --
19-11-2020 -- (--) -- (--) -- -- (--) -- (--) -- -- -- -- --
18-11-2020 -- (--) -- (--) -- -- (--) -- (--) -- -- -- -- --
17-11-2020 -- (--) -- (--) -- -- (--) -- (--) -- -- -- -- --
16-11-2020 -- (--) -- (--) -- -- (--) -- (--) -- -- -- -- --
15-11-2020 -- (--) -- (--) -- -- (--) -- (--) -- -- -- -- --
14-11-2020 -- (--) -- (--) -- -- (--) -- (--) -- -- -- -- --
13-11-2020 -- (--) -- (--) -- -- (--) -- (--) -- -- -- -- --
12-11-2020 -- (--) -- (--) -- -- (--) -- (--) -- -- -- -- --
11-11-2020 -- (--) -- (--) -- -- (--) -- (--) -- -- -- -- --
10-11-2020 -- (--) -- (--) -- -- (--) -- (--) -- -- -- -- --
09-11-2020 -- (--) -- (--) -- -- (--) -- (--) -- -- -- -- --
08-11-2020 -- (--) -- (--) -- -- (--) -- (--) 0 0 0 0 0
07-11-2020 -- (--) -- (--) -- -- (--) -- (--) 18.7 18.7 0 0 0
06-11-2020 -- (--) -- (--) -- -- (--) -- (--) 4.2 0 0 0.4 3.8
05-11-2020 -- (--) -- (--) -- -- (--) -- (--) 9 0.3 0.4 3.6 4.7
04-11-2020 -- (--) -- (--) -- -- (--) -- (--) 6.8 0.1 0.1 0.1 6.5
03-11-2020 -- (--) -- (--) -- -- (--) -- (--) 4.4 0 1.7 1.9 0.8
02-11-2020 -- (--) -- (--) -- -- (--) -- (--) 0 0 0 0 0
01-11-2020 -- (--) -- (--) -- -- (--) -- (--) 0 0 0 0 0
31-10-2020 -- (--) -- (--) -- -- (--) -- (--) 0 0 0 0 0
30-10-2020 -- (--) -- (--) -- -- (--) -- (--) 0 0 0 0 0
29-10-2020 -- (--) -- (--) -- -- (--) -- (--) 0.1 0 0.1 0 0
28-10-2020 -- (--) -- (--) -- -- (--) -- (--) 3.7 1.7 1.9 0.1 0

Gráficas

Temp. máximas Temp. mínimas Temp. medias Precipitaciones Rachas de viento máximas Velocidades máximas media en intervalos de 10 minutos

Datos horarios

Fecha y hora oficial Temperatura (ºC) Velocidad del viento (km/h) Dirección del viento Racha (km/h) Dirección de racha Precipitación (mm) Presión (hPa) Tendencia (hPa) Humedad (%)
2020-11-26 23:00:00 -- 19 Sur 45 Sudeste 0 849.6 0.4 --
2020-11-26 22:00:00 -- 19 Sur 50 Sudeste 0 849.6 1 --
2020-11-26 21:00:00 -- 21 Sur 48 Sur 0 849.6 -- --
2020-11-26 20:00:00 -- 16 Sudeste 52 Sudeste 0 849.2 -- --
2020-11-26 19:00:00 -- 22 Sur 58 Sur 0 848.6 -- --
2020-11-26 18:00:00 -- 19 Sur 45 Sur 0.5 848.7 -- --
2020-11-26 17:00:00 -- 17 Sur 49 Sudeste 0.3 848.3 -- --
2020-11-26 16:00:00 -- 16 Sudeste 46 Sudeste 0 848.2 -- --
2020-11-26 15:00:00 -- 18 Sudeste 44 Sur 0.5 848.6 -- --
2020-11-26 14:00:00 -- 14 Sudeste 39 Sudeste 1.8 849.2 -- --
2020-11-26 13:00:00 -- 17 Sur 39 Sudeste 0.4 849.6 -- --
2020-11-26 12:00:00 -- 14 Sudeste 44 Sudeste 0.1 850.2 -- --
2020-11-26 11:00:00 -- 22 Sur 40 Sudeste 0.3 849.6 -- --
2020-11-26 10:00:00 -- 17 Sur 52 Sudeste 0.1 849.9 -- --
2020-11-26 09:00:00 -- 26 Sur 45 Sur 0 849.4 -- --
2020-11-26 08:00:00 -- 25 Sur 42 Sudeste 0 849.4 -- --
2020-11-26 07:00:00 -- 21 Sur 46 Sudeste 0 848.5 -- --
2020-11-26 06:00:00 -- 28 Sur 58 Sur 0.1 847.8 -- --
2020-11-26 05:00:00 -- 22 Sur 49 Sur 0.9 847.9 -- --
2020-11-26 04:00:00 -- 19 Sur 44 Sur 0.4 849.1 -- --
2020-11-26 03:00:00 -- 22 Sur 54 Sudeste 0.5 848.9 -- --
2020-11-26 02:00:00 -- 28 Sur 58 Sudoeste 1.7 848.5 -- --
2020-11-26 01:00:00 -- 27 Sur 61 Sur 1.8 849.8 -- --
2020-11-26 00:00:00 -- 31 Sur 60 Sur 1.3 849.5 -- --
2020-11-25 23:00:00 -- 30 Sur 59 Sur 0.5 849.3 -- --
2020-11-25 22:00:00 -- 28 Sur 62 Sur 0.8 849.1 -- --
2020-11-25 21:00:00 -- 32 Sur 54 Sur 0 849.1 -- --
2020-11-25 20:00:00 -- 19 Sur 41 Sur 0 849.2 -- --
2020-11-25 19:00:00 -- 27 Sur 49 Sur 0 849.7 -- --
2020-11-25 18:00:00 -- 21 Sur 46 Sur 0 849.4 -- --
2020-11-25 17:00:00 -- 22 Sur 45 Sur 0 849.7 -- --
2020-11-25 16:00:00 -- 24 Sur 46 Sur 0 849.7 -- --
2020-11-25 15:00:00 -- 20 Sur 39 Sur -- 850.1 -- --
2020-11-25 14:00:00 -- -- -- 33 Sudeste -- 850.8 -- 86
2020-11-25 13:00:00 -- -- -- -- -- -- 851.9 -- 91
2020-11-25 12:00:00 -- -- -- 31 Sur -- 852 -- 88
2020-11-25 11:00:00 -- -- -- 59 Sur -- 852.6 -- 81
2020-11-25 10:00:00 -- -- -- 26 Sur -- 852.6 -- 87
2020-11-25 09:00:00 -- -- -- 28 Sudeste -- 852.5 -- 91
2020-11-25 08:00:00 -- -- -- 26 Sudeste -- 852.6 -- 92
2020-11-25 07:00:00 -- -- -- 30 Sur -- 852.7 -- 92
2020-11-25 06:00:00 -- -- -- 29 Sur -- 852.8 -- 94
2020-11-25 05:00:00 -- -- -- 33 Sur -- 853.2 -- 83
2020-11-25 04:00:00 -- -- -- 24 Sur -- 853.2 -- 86
2020-11-25 03:00:00 -- -- -- 20 Sur -- 853.7 -- 98
2020-11-25 02:00:00 -- -- -- 20 Sur -- 854.2 -- 97
2020-11-25 01:00:00 -- -- -- 18 Sur -- 854.9 -- 97
2020-11-25 00:00:00 -- -- -- 13 Sur -- 855 -- 97
2020-11-24 23:00:00 -- -- -- 12 Sudoeste -- 855.7 -- 96
2020-11-24 22:00:00 -- -- -- 10 Sur -- 856 -- 95
2020-11-24 21:00:00 -- -- -- 11 Sudoeste -- 856.3 -- 94
2020-11-24 20:00:00 -- -- -- 10 Sur -- 856.5 -- 92
2020-11-24 19:00:00 -- -- -- 12 Sur -- 856.6 -- 91
2020-11-24 18:00:00 -- -- -- 22 Sur -- 856.5 -- 87
2020-11-24 17:00:00 -- -- -- 22 Sudoeste -- 856.6 -- 75
2020-11-24 16:00:00 -- -- -- 15 Sudoeste -- 856.5 -- 64
2020-11-24 15:00:00 -17.2 -- -- 14 Sudoeste -- 857 -- 54
2020-11-24 14:00:00 -11 -- -- 11 Sudeste -- 858 -- 54
2020-11-24 13:00:00 -6.5 -- -- 13 Sur -- 858.5 -- 55
2020-11-24 12:00:00 -5.8 -- -- 12 Sur -- 859.3 -- 56
2020-11-24 11:00:00 -4.9 -- -- 10 Sur -- 859.8 -- 60
2020-11-24 10:00:00 -3.2 -- -- 8 Sudeste -- 859.8 -- 69
2020-11-24 09:00:00 -6.1 -- -- 6 Sur -- 859.9 -- 76
2020-11-24 08:00:00 -3.5 -- -- 9 Sur -- 859.7 -- 78
2020-11-24 07:00:00 -4.6 -- -- 9 Sur -- 859.7 -- 76
2020-11-24 06:00:00 -3.7 -- -- 9 Sur -- 859.9 -- 80
2020-11-24 05:00:00 -7.5 -- -- 10 Sudeste -- 859.9 -- 85
2020-11-24 04:00:00 -4 -- -- 11 Sur -- 860.5 -- 87
2020-11-24 03:00:00 -4.3 -- -- 10 Sur -- 860.8 -- 87
2020-11-24 02:00:00 -4.7 -- -- 9 Sur -- 861.6 -- 85
2020-11-24 01:00:00 -5.2 -- -- 10 Sur -- 862 -- 80
2020-11-24 00:00:00 -2.2 -- -- 10 Sur -- 862 -- 79
2020-11-23 23:00:00 -2.1 -- -- 9 Sur -- 862.6 -- 83
2020-11-23 22:00:00 -1.9 -- -- 11 Sur -- 862.7 -- 84
2020-11-23 21:00:00 -0.5 -- -- 13 Sur -- 862.8 -- 80
2020-11-23 20:00:00 -0.5 -- -- 7 Sur -- 862.8 -- 76
2020-11-23 19:00:00 -0.2 -- -- 5 Sur -- 862.7 -- 76
2020-11-23 18:00:00 -2.8 -- -- 13 Sur -- 862.5 -- 64
2020-11-23 17:00:00 2.7 -- -- 13 Sudoeste -- 862.4 -- 50
2020-11-23 16:00:00 4.4 -- -- 12 Sur -- 862.4 -- 47
2020-11-23 15:00:00 3.1 -- -- 12 Sur -- 862.6 -- 48
2020-11-23 14:00:00 3.7 -- -- 11 Sur -- 863.1 -- 44
2020-11-23 13:00:00 5.4 -- -- 11 Sur -- 863.4 -- 41
2020-11-23 12:00:00 5.4 -- -- 12 Sur -- 863.8 -- 42
2020-11-23 11:00:00 4.9 -- -- 10 Sur -- 863.9 -- 42
2020-11-23 10:00:00 5.7 -- -- 8 Sur -- 863.8 -- 51
2020-11-23 09:00:00 2.2 -- -- 6 Sur -- 863.6 -- 57
2020-11-23 08:00:00 3.6 -- -- 4 Sudeste -- 863.5 -- 53
2020-11-23 07:00:00 1.7 -- -- 7 Este -- 863.4 -- 54
2020-11-23 06:00:00 1.2 -- -- 6 Sur -- 863.4 -- 61
2020-11-23 05:00:00 0.4 -- -- 60 Norte -- 863.5 -- 58
2020-11-23 04:00:00 -0.8 -- -- 7 Sur -- 863.8 -- 63
2020-11-23 03:00:00 0.1 -- -- 5 Sudeste -- 863.7 -- 63
2020-11-23 02:00:00 2.7 -- -- 7 Sur -- 864.2 -- 62
2020-11-23 01:00:00 3.5 -- -- 6 Sur -- 864.2 -- 64
2020-11-23 00:00:00 1.6 -- -- 6 Sur -- 864.4 -- 64
2020-11-22 23:00:00 3.7 -- -- 6 Sur -- 864.1 -- 65
2020-11-22 22:00:00 1.3 -- -- 6 Sur -- 864 -- 64
2020-11-22 21:00:00 2.1 -- -- 6 Norte -- 864 -- 65
2020-11-22 20:00:00 0.4 -- -- 8 Sur -- 863.6 -- 65
2020-11-22 19:00:00 0 -- -- 9 Sur -- 863.4 -- 64
2020-11-22 18:00:00 3.2 -- -- 10 Sudeste -- 863.2 -- 61
2020-11-22 17:00:00 4.9 -- -- 11 Sudoeste -- 863 -- 50
2020-11-22 16:00:00 6.4 -- -- 16 Sudoeste -- 863.3 -- 44
2020-11-22 15:00:00 5.9 -- -- 17 Sudoeste -- 863.2 -- 42
2020-11-22 14:00:00 4.6 -- -- 18 Sur -- 863.5 -- 44
2020-11-22 13:00:00 4.4 -- -- 17 Sur -- 864 -- 42
2020-11-22 12:00:00 3.3 -- -- 14 Sudeste -- 864.5 -- 44
2020-11-22 11:00:00 7 -- -- 13 Sudeste -- 864.5 -- 47
2020-11-22 10:00:00 4.3 -- -- 10 Sur -- 864.1 -- 48
2020-11-22 09:00:00 0 -- -- 9 Sudeste -- 864 -- 56
2020-11-22 08:00:00 1.8 -- -- 8 Sur -- 863.8 -- 56
2020-11-22 07:00:00 1.3 -- -- 11 Sur -- 863.7 -- 56
2020-11-22 06:00:00 0.9 -- -- 7 Sur -- 863.4 -- 51
2020-11-22 05:00:00 0.8 -- -- 9 Sudeste -- 863.5 -- 57
2020-11-22 04:00:00 1.3 -- -- 12 Sur -- 863.8 -- 68
2020-11-22 03:00:00 -0.4 -- -- 12 Sur -- 863.9 -- 64
2020-11-22 02:00:00 0.8 -- -- 13 Sudeste -- 863.7 -- 61
2020-11-22 01:00:00 0.2 -- -- 13 Sur -- 864 -- 60
2020-11-22 00:00:00 0.5 -- -- 15 Sur -- 863.9 -- 60
2020-11-21 23:00:00 1.1 -- -- 15 Sur -- 864.2 -- 58
2020-11-21 22:00:00 1 -- -- 13 Sur -- 864 -- 60
2020-11-21 21:00:00 1.5 -- -- 12 Sur -- 864.1 -- 60
2020-11-21 20:00:00 2 -- -- 15 Sur -- 864.1 -- 57
2020-11-21 19:00:00 1.2 -- -- 15 Sur -- 863.9 -- 55
2020-11-21 18:00:00 1.8 -- -- 16 Sur -- 863.3 -- 44
2020-11-21 17:00:00 5.7 -- -- 21 Sur -- 863 -- 36
2020-11-21 16:00:00 9.3 -- -- 24 Sudoeste -- 862.5 -- 33
2020-11-21 15:00:00 8 -- -- 23 Sur -- 862.7 -- 29
2020-11-21 14:00:00 8.8 -- -- 21 Sur -- 862.9 -- 28
2020-11-21 13:00:00 6.4 -- -- 21 Sur -- 863.2 -- 28
2020-11-21 12:00:00 8.2 -- -- 21 Sur -- 864 -- 26
2020-11-21 11:00:00 6.2 -- -- 16 Sur -- 864.1 -- 30
2020-11-21 10:00:00 6.5 -- -- 12 Sur -- 863.8 -- 33
2020-11-21 09:00:00 3.2 -- -- 8 Sur -- 863.9 -- 37
2020-11-21 08:00:00 2.7 -- -- 9 Sur -- -- -- 41
2020-11-21 07:00:00 3 -- -- 5 Sudeste -- -- -- 42
2020-11-21 06:00:00 2.2 -- -- 11 Este -- -- -- 45
2020-11-21 05:00:00 3.3 -- -- 9 Sur -- -- -- 49
2020-11-21 04:00:00 3.5 -- -- 12 Este -- -- -- 59
2020-11-21 03:00:00 3.5 -- -- 15 Sudeste -- 863.7 -- 60
2020-11-21 02:00:00 3.7 -- -- 14 Este -- 864.6 -- 55
2020-11-21 01:00:00 1.9 -- -- 12 Sur -- 865.3 -- 57
2020-11-21 00:00:00 2.4 -- -- 13 Sudeste -- 865.4 -- 61
2020-11-20 23:00:00 2.2 -- -- 9 Este -- 865.6 -- 67
2020-11-20 22:00:00 1.8 -- -- 13 Sudeste -- 865.7 -- 74
2020-11-20 21:00:00 1.1 -- -- 16 Sur -- 865.8 -- 73
2020-11-20 20:00:00 1.6 -- -- 21 Sur -- 865.4 -- 74
2020-11-20 19:00:00 1 -- -- 19 Sur -- 865.9 -- 75
2020-11-20 18:00:00 1.6 -- -- 19 Sur -- 866 -- 73
2020-11-20 17:00:00 1 -- -- 19 Sur -- 865.4 -- 65
2020-11-20 16:00:00 2.1 -- -- 18 Sur -- 865.9 -- 62
2020-11-20 15:00:00 2.3 -- -- 29 Sudoeste -- 866 -- 58
2020-11-20 14:00:00 2.2 -- -- 36 Sudoeste -- 865.8 -- 64
2020-11-20 13:00:00 3.7 -- -- 35 Sudoeste -- 866.3 -- 64
2020-11-20 12:00:00 3.4 -- -- 39 Sudoeste -- 866.7 -- 66
2020-11-20 11:00:00 2.4 -- -- 33 Sudoeste -- 866.6 -- 62
2020-11-20 10:00:00 2.7 -- -- 21 Sur -- 867 -- 61
2020-11-20 09:00:00 0 -- -- 14 Norte -- 867.6 -- 68
2020-11-20 08:00:00 0.6 -- -- 12 Sudeste -- 867.5 -- 61
2020-11-20 07:00:00 0.4 -- -- 10 Sur -- 867.4 -- 58
2020-11-20 06:00:00 0.9 -- -- 12 Sudeste -- 867.8 -- 51
2020-11-20 05:00:00 1.5 -- -- 20 Sur -- 868.1 -- 54
2020-11-20 04:00:00 1.3 -- -- 16 Este -- 868.2 -- 88
2020-11-20 03:00:00 0.8 -- -- 13 Sudeste -- 868.6 -- 94
2020-11-20 02:00:00 1.8 -- -- 14 Sur -- 868.9 -- 94
2020-11-20 01:00:00 2.2 -- -- 16 Sudoeste -- 869.3 -- 97
2020-11-20 00:00:00 2.3 -- -- 13 Sudoeste -- 869.7 -- 98
2020-11-19 23:00:00 2.8 -- -- 15 Sur -- 869.9 -- 98
2020-11-19 22:00:00 3.3 -- -- 17 Sur -- 869.3 -- 97
2020-11-19 21:00:00 4.5 -- -- 28 Sudoeste -- 869.3 -- 97
2020-11-19 20:00:00 5 -- -- 23 Sudoeste -- 869.3 -- 95
2020-11-19 19:00:00 5.6 -- -- 26 Sur -- 869.1 -- 88
2020-11-19 18:00:00 5.8 -- -- 32 Sudoeste -- 869 -- 82
2020-11-19 17:00:00 8.2 -- -- 30 Sur -- 868.7 -- 68
2020-11-19 16:00:00 9.1 -- -- 23 Sur -- 868.8 -- 63
2020-11-19 15:00:00 9.4 -- -- 24 Sur -- 869.1 -- 64
2020-11-19 14:00:00 9.5 -- -- 23 Sudoeste -- 869.6 -- 63
2020-11-19 13:00:00 9.2 -- -- 20 Sur -- 869.6 -- 62
2020-11-19 12:00:00 7.6 -- -- 24 Sudoeste -- 870.1 -- 66
2020-11-19 11:00:00 8.2 -- -- 28 Sur -- 870 -- 69
2020-11-19 10:00:00 6.8 -- -- 27 Sur -- 869.6 -- 74
2020-11-19 09:00:00 3.5 -- -- 24 Sur -- 868.7 -- 81
2020-11-19 08:00:00 4.6 -- -- 22 Sur -- 868.3 -- 79
2020-11-19 07:00:00 4.1 -- -- 24 Sudoeste -- 867.9 -- 74
2020-11-19 06:00:00 5 -- -- 19 Sur -- 867.9 -- 72
2020-11-19 05:00:00 5.9 -- -- 20 Sur -- 867.6 -- 68
2020-11-19 04:00:00 5.3 -- -- 17 Sur -- 867.7 -- 67
2020-11-19 03:00:00 5 -- -- 13 Sudoeste -- 867.4 -- 64
2020-11-19 02:00:00 5.5 -- -- 15 Sur -- 867.6 -- 64
2020-11-19 01:00:00 6.2 -- -- 14 Sur -- 867.8 -- 64
2020-11-19 00:00:00 5.9 -- -- 14 Sur -- 867.7 -- 66
2020-11-18 23:00:00 5.7 -- -- 13 Sur -- 867.7 -- 62
2020-11-18 22:00:00 6.3 -- -- 10 Sudeste -- 867.2 -- 58
2020-11-18 21:00:00 7.4 -- -- 8 Este -- 866.7 -- 54
2020-11-18 20:00:00 7.3 -- -- 8 Norte -- 866.4 -- 54
2020-11-18 19:00:00 7.2 -- -- 5 Sur -- 866.3 -- 54
2020-11-18 18:00:00 7.7 -- -- 6 Sudeste -- 865.9 -- 50
2020-11-18 17:00:00 11.6 -- -- 8 Sudoeste -- 865.1 -- 42
2020-11-18 16:00:00 12.4 -- -- 14 Sur -- 865.1 -- 38
2020-11-18 15:00:00 11.8 -- -- 14 Sudeste -- 865.2 -- 37
2020-11-18 14:00:00 -- -- -- 60 Norte -- -- -- --
2020-11-18 13:00:00 -- -- -- 23 Sudoeste -- -- -- --
2020-11-18 12:00:00 12.3 -- -- 18 Sudoeste -- 866.3 -- 36
2020-11-18 11:00:00 -- -- -- 16 Oeste -- -- -- --
2020-11-18 10:00:00 -- -- -- 10 Sudeste -- -- -- --
2020-11-18 09:00:00 7.3 -- -- 9 Sudeste -- 865.4 -- 57
2020-11-18 08:00:00 6.6 -- -- 10 Este -- -- -- 58
2020-11-18 07:00:00 6.1 -- -- 12 Este -- 864.9 -- 61
2020-11-18 06:00:00 -- -- -- 10 Sudeste -- 865 -- --
2020-11-18 05:00:00 -- -- -- 19 Norte -- -- -- --
2020-11-18 04:00:00 5.8 -- -- 19 Norte -- -- -- --
2020-11-18 03:00:00 6.2 -- -- 8 Norte -- 864.6 -- 61
2020-11-18 02:00:00 -- -- -- 53 Norte -- -- -- --
2020-11-18 01:00:00 -- -- -- 32 Norte -- -- -- --
2020-11-18 00:00:00 -- -- -- 22 Norte -- -- -- --
2020-11-17 23:00:00 -- -- -- 31 Norte -- -- -- --
2020-11-17 22:00:00 -- -- -- 54 Norte -- -- -- --
2020-11-17 21:00:00 -- -- -- 8 Sur -- -- -- --
2020-11-17 20:00:00 -- -- -- 31 Norte -- -- -- --
2020-11-17 19:00:00 7.7 -- -- 7 Sudeste -- 864 -- 76
2020-11-17 18:00:00 8.2 -- -- 8 Sur -- 864 -- 71
2020-11-17 17:00:00 11.8 -- -- 12 Sudoeste -- -- -- 51
2020-11-17 16:00:00 13.3 -- -- 35 Norte -- -- -- 40
2020-11-17 15:00:00 13.1 -- -- 13 Sudoeste -- 863.9 -- 40
2020-11-17 14:00:00 13.4 -- -- 20 Sur -- 864.1 -- 36
2020-11-17 13:00:00 12.1 -- -- 15 Sudeste -- 864.6 -- 35
2020-11-17 12:00:00 11.9 -- -- 13 Sur -- 865.1 -- 33
2020-11-17 11:00:00 11.5 -- -- 15 Sur -- 864.7 -- 35
2020-11-17 10:00:00 10.4 -- -- 10 Sur -- 864.5 -- 44
2020-11-17 09:00:00 5.1 -- -- 9 Sur -- 864.3 -- 46
2020-11-17 08:00:00 4.4 -- -- 10 Sudeste -- 863.7 -- 42
2020-11-17 07:00:00 3.9 -- -- 9 Sur -- 863.7 -- 49
2020-11-17 06:00:00 3.1 -- -- 17 Nordeste -- 863.7 -- 69
2020-11-17 05:00:00 -- -- -- 7 Sur -- -- -- --
2020-11-17 04:00:00 4.7 -- -- 7 Sur -- 863.3 -- 52
2020-11-17 03:00:00 3.9 -- -- 9 Sur -- 863.4 -- 51
2020-11-17 02:00:00 3.2 -- -- 6 Sur -- 863.5 -- 49
2020-11-17 01:00:00 4.2 -- -- 6 Sur -- 864 -- 62
2020-11-17 00:00:00 3.6 -- -- 6 Sur -- 864.1 -- 54
2020-11-16 23:00:00 3 -- -- 6 Sudeste -- 864.1 -- 53
2020-11-16 22:00:00 -- -- -- 13 Norte -- -- -- --
2020-11-16 21:00:00 2.9 -- -- 7 Sudeste -- 863.7 -- 79
2020-11-16 20:00:00 5.2 -- -- 12 Sur -- 863.3 -- 91
2020-11-16 19:00:00 6.1 -- -- 13 Sur -- 862.6 -- 91
2020-11-16 18:00:00 7.2 -- -- 16 Sur -- 862.4 -- 87
2020-11-16 17:00:00 -- -- -- 16 Norte -- -- -- --
2020-11-16 16:00:00 -- -- -- 17 Sudeste -- -- -- --
2020-11-16 15:00:00 7.5 -- -- 15 Sur -- -- -- 72
2020-11-16 14:00:00 9.8 -- -- 14 Noroeste -- 862.1 -- 76
2020-11-16 13:00:00 -- -- -- 27 Norte -- -- -- --
2020-11-16 12:00:00 8.9 -- -- 11 Noroeste -- 862.7 -- 90
2020-11-16 11:00:00 7.2 -- -- 45 Norte -- -- -- 94
2020-11-16 10:00:00 6.7 -- -- 20 Noroeste -- 861.8 -- 97
2020-11-16 09:00:00 6.5 -- -- 23 Norte -- 861.8 -- 97
2020-11-16 08:00:00 6.5 -- -- 20 Norte -- 860.8 -- 98
2020-11-16 07:00:00 7.2 -- -- 26 Norte -- -- -- 98
2020-11-16 06:00:00 7.7 -- -- 24 Oeste -- 860.8 -- 98
2020-11-16 05:00:00 7.9 -- -- 69 Norte -- 860.1 -- 98
2020-11-16 04:00:00 -- -- -- 30 Oeste -- -- -- --
2020-11-16 03:00:00 7.7 -- -- 62 Norte -- 860.4 -- 97
2020-11-16 02:00:00 8.3 -- -- 93 Nordeste -- 860.5 -- 96
2020-11-16 01:00:00 8.2 -- -- 27 Sudoeste -- 860.6 -- 96
2020-11-16 00:00:00 8.6 -- -- 28 Oeste -- 860.6 -- 95
2020-11-15 23:00:00 9.3 -- -- 28 Sudoeste -- 860.6 -- 92
2020-11-15 22:00:00 9.5 -- -- 27 Sudoeste -- 860.4 -- 88
2020-11-15 21:00:00 9.2 -- -- 35 Sur -- 860 -- 86
2020-11-15 20:00:00 9.3 -- -- 31 Sudoeste -- 859.9 -- 83
2020-11-15 19:00:00 10 -- -- 25 Sur -- 859.6 -- 81
2020-11-15 18:00:00 10.2 -- -- 31 Sudoeste -- 859.5 -- 79
2020-11-15 17:00:00 9.9 -- -- 33 Sudoeste -- 859.4 -- 82
2020-11-15 16:00:00 9.8 -- -- 30 Sudoeste -- 859 -- 83
2020-11-15 15:00:00 7.2 -- -- 21 Sudeste -- 858.7 -- 98
2020-11-15 14:00:00 7.8 -- -- 14 Sur -- 859.2 -- 98
2020-11-15 13:00:00 7.1 -- -- 17 Sudeste -- 859.1 -- 97
2020-11-15 12:00:00 7.3 -- -- 16 Sur -- 859.5 -- 96
2020-11-15 11:00:00 8.9 -- -- 21 Este -- 859.7 -- 88
2020-11-15 10:00:00 7.7 -- -- 17 Sudeste -- 859.6 -- 98
2020-11-15 09:00:00 6.8 -- -- 18 Sur -- 859.2 -- 96
2020-11-15 08:00:00 6.5 -- -- 15 Sudeste -- 858.7 -- 98
2020-11-15 07:00:00 5.2 -- -- 13 Sur -- 858.5 -- 98
2020-11-15 06:00:00 5.1 -- -- 10 Sur -- 858.4 -- 98
2020-11-15 05:00:00 5 -- -- 12 Sur -- 858.2 -- 98
2020-11-15 04:00:00 5.9 -- -- 14 Este -- 858.3 -- 96
2020-11-15 03:00:00 4.9 -- -- 13 Este -- 858.8 -- 98
2020-11-15 02:00:00 4.1 -- -- 10 Sur -- 858.9 -- 98
2020-11-15 01:00:00 5 -- -- 12 Sudeste -- 859.3 -- 98
2020-11-15 00:00:00 5.1 -- -- 15 Sudoeste -- 859.2 -- 98
2020-11-14 23:00:00 5 -- -- 12 Sudoeste -- 859.4 -- 98
2020-11-14 22:00:00 5.2 -- -- 10 Sur -- 859.2 -- 98
2020-11-14 21:00:00 5.7 -- -- 13 Sur -- 859 -- 98
2020-11-14 20:00:00 5.3 -- -- 13 Sur -- 859 -- 98
2020-11-14 19:00:00 6 -- -- 13 Sur -- 858.4 -- 98
2020-11-14 18:00:00 5.3 -- -- 13 Sur -- 858 -- 98
2020-11-14 17:00:00 4.9 -- -- 13 Sur -- 857.8 -- 98
2020-11-14 16:00:00 6.2 -- -- 14 Sur -- 857.9 -- 98
2020-11-14 15:00:00 4.8 -- -- 14 Sur -- 857.8 -- 98
2020-11-14 14:00:00 5.6 -- -- 13 Sur -- 857.9 -- 98
2020-11-14 13:00:00 5.7 -- -- 12 Sur -- 858.3 -- 98
2020-11-14 12:00:00 5.1 -- -- 13 Sur -- 858.9 -- 92
2020-11-14 11:00:00 5.7 -- -- 13 Sur -- 859 -- 92
2020-11-14 10:00:00 4.9 -- -- 12 Sur -- 858.8 -- 94
2020-11-14 09:00:00 5.7 -- -- 12 Sur -- 858.4 -- 95
2020-11-14 08:00:00 4.1 -- -- 12 Sur -- 858.1 -- 97
2020-11-14 07:00:00 4.5 -- -- 14 Sur -- 858 -- 97
2020-11-14 06:00:00 3.3 -- -- 13 Sur -- 857.7 -- 96
2020-11-14 05:00:00 4.1 -- -- 13 Sur -- 857.6 -- 96
2020-11-14 04:00:00 3.3 -- -- 13 Sur -- 858 -- 94
2020-11-14 03:00:00 4.5 -- -- 18 Sur -- 858.4 -- 91
2020-11-14 02:00:00 4.5 -- -- 20 Sur -- 858.4 -- 88
2020-11-14 01:00:00 5 -- -- 22 Sudeste -- 858.8 -- 86
2020-11-14 00:00:00 5.2 -- -- 22 Sudeste -- 858.9 -- 88
2020-11-13 23:00:00 4.2 -- -- 19 Sur -- 859.2 -- 95
2020-11-13 22:00:00 4.5 -- -- 26 Sur -- 858.9 -- 95
2020-11-13 21:00:00 4.3 -- -- 56 Sur -- 858.7 -- 95
2020-11-13 20:00:00 4.1 -- -- -- -- -- 858.8 -- 94
2020-11-13 19:00:00 4 -- -- -- -- -- -- -- --
2020-11-13 18:00:00 -- -- -- -- -- -- -- -- --
2020-11-13 17:00:00 -- -- -- -- -- -- -- -- --
2020-11-13 16:00:00 -- -- -- -- -- -- -- -- --
2020-11-13 15:00:00 -- -- -- -- -- -- -- -- --
2020-11-13 14:00:00 -- -- -- -- -- -- -- -- --
2020-11-13 13:00:00 -- -- -- -- -- -- -- -- --
2020-11-13 12:00:00 7.4 -- -- 17 Este -- -- -- --
2020-11-13 11:00:00 27.3 -- -- 3 Sudeste -- -- -- --
2020-11-13 10:00:00 -- -- -- 6 Este -- -- -- --
2020-11-13 09:00:00 -- -- -- 24 Sudeste -- -- -- --
2020-11-13 08:00:00 -- -- -- -- -- -- -- -- --
2020-11-13 07:00:00 3.2 -- -- -- -- -- -- -- --
2020-11-13 06:00:00 -- -- -- 156 Este -- -- -- --
2020-11-13 05:00:00 -- -- -- 42 Nordeste -- -- -- --
2020-11-13 04:00:00 -- -- -- -- -- -- -- -- --
2020-11-13 03:00:00 -- -- -- -- -- -- -- -- --
2020-11-13 02:00:00 -- -- -- -- -- -- -- -- --
2020-11-13 01:00:00 -- -- -- -- -- -- -- -- --
2020-11-13 00:00:00 -- -- -- -- -- -- -- -- --
2020-11-12 23:00:00 -- -- -- -- -- -- -- -- --
2020-11-12 22:00:00 -- -- -- -- -- -- -- -- --
2020-11-12 21:00:00 -- -- -- -- -- -- -- -- --
2020-11-12 20:00:00 -- -- -- -- -- -- -- -- --
2020-11-12 19:00:00 -- -- -- -- -- -- -- -- --
2020-11-12 18:00:00 -- -- -- -- -- -- -- -- --
2020-11-12 17:00:00 -- -- -- -- -- -- -- -- --
2020-11-12 16:00:00 -- -- -- -- -- -- -- -- --
2020-11-12 15:00:00 -- -- -- -- -- -- -- -- --
2020-11-12 14:00:00 -- -- -- -- -- -- -- -- --
2020-11-12 13:00:00 -- -- -- -- -- -- -- -- --
2020-11-12 12:00:00 -- -- -- -- -- -- -- -- --
2020-11-12 11:00:00 -- -- -- -- -- -- -- -- --
2020-11-12 10:00:00 -- -- -- -- -- -- -- -- --
2020-11-12 09:00:00 -- -- -- -- -- -- -- -- --
2020-11-12 08:00:00 -- -- -- -- -- -- -- -- --
2020-11-12 07:00:00 -- -- -- -- -- -- -- -- --
2020-11-12 06:00:00 -- -- -- -- -- -- -- -- --
2020-11-12 05:00:00 -- -- -- -- -- -- -- -- --
2020-11-12 04:00:00 -- -- -- -- -- -- -- -- --
2020-11-12 03:00:00 -- -- -- -- -- -- -- -- --
2020-11-12 02:00:00 -- -- -- -- -- -- -- -- --
2020-11-12 01:00:00 -- -- -- -- -- -- -- -- --
2020-11-12 00:00:00 -- -- -- 153 Sur -- -- -- --
2020-11-11 23:00:00 -- -- -- -- -- -- -- -- --
2020-11-11 22:00:00 -- -- -- 66 Norte -- -- -- --
2020-11-11 21:00:00 -- -- -- -- -- -- -- -- --
2020-11-11 20:00:00 -- -- -- -- -- -- -- -- --
2020-11-11 19:00:00 -- -- -- -- -- -- -- -- --
2020-11-11 18:00:00 6.7 -- -- -- -- -- 860.7 -- 81
2020-11-11 17:00:00 7.4 -- -- -- -- -- 860.8 -- 75
2020-11-11 16:00:00 8.4 -- -- -- -- -- 860.6 -- 63
2020-11-11 15:00:00 -- -- -- -- -- -- -- -- --
2020-11-11 14:00:00 8.1 -- -- 24 Sur -- 860.5 -- 62
2020-11-11 13:00:00 7.5 -- -- 139 Sudeste -- 861.4 -- 65
2020-11-11 12:00:00 6.6 15 Sur 151 Sur 0 861.8 -- 67
2020-11-11 11:00:00 5.6 12 Sur 19 Sur 0 862.1 -- 82
2020-11-11 10:00:00 4.3 11 Sur -- -- 0.6 862 -- 93
2020-11-11 09:00:00 -- 0 Calma -- -- 0.7 -- -- --
2020-11-11 08:00:00 -- 7 Este -- -- 1 -- -- --
2020-11-11 07:00:00 -- 79 Norte -- -- 0.1 -- -- --
2020-11-11 06:00:00 -- 0 Calma -- -- -- -- -- --
2020-11-11 05:00:00 -- 0 Calma -- -- -- -- -- --
2020-11-11 04:00:00 -- 0 Calma -- -- -- -- -- --
2020-11-11 03:00:00 -- 0 Calma -- -- 0 -- -- --
2020-11-11 02:00:00 -- 0 Calma -- -- 0 -- -- --
2020-11-11 01:00:00 -- 0 Calma -- -- 0 -- -- --
2020-11-11 00:00:00 -- 0 Calma -- -- 0 -- -- --
2020-11-10 23:00:00 -- 0 Calma -- -- 0 -- -- --
2020-11-10 22:00:00 -- 0 Calma -- -- -- -- -- --
2020-11-10 21:00:00 -- 0 Calma -- -- -- -- -- --
2020-11-10 20:00:00 -- 0 Calma -- -- -- -- -- --
2020-11-10 19:00:00 -- 0 Calma -- -- 36.5 -- -- --
2020-11-10 18:00:00 -- 0 Calma -- -- -- -- -- --
2020-11-10 17:00:00 -- 0 Calma -- -- 0 -- -- --
2020-11-10 16:00:00 -- 0 Calma -- -- 0 -- -- --
2020-11-10 15:00:00 -- 0 Calma -- -- 0 -- -- --
2020-11-10 14:00:00 -- 0 Calma -- -- 0 -- -- --
2020-11-10 13:00:00 -- 0 Calma -- -- 0 -- -- --
2020-11-10 12:00:00 -- 0 Calma -- -- 0 -- -- --
2020-11-10 11:00:00 -- 0 Calma -- -- 0 -- -- --
2020-11-10 10:00:00 -- 0 Calma -- -- 0 -- -- --
2020-11-10 09:00:00 -- 0 Calma -- -- 0 -- -- --
2020-11-10 08:00:00 -- 0 Calma -- -- 0 -- -- --
2020-11-10 07:00:00 -- 0 Calma -- -- 0 -- -- --
2020-11-10 06:00:00 -- 0 Calma -- -- 0 -- -- --
2020-11-10 05:00:00 -- 0 Calma -- -- 0 -- -- --
2020-11-10 04:00:00 -- 0 Calma -- -- 0 -- -- --
2020-11-10 03:00:00 -- 0 Calma -- -- 0 -- -- --
2020-11-10 02:00:00 -- 0 Calma -- -- 0 -- -- --
2020-11-10 01:00:00 -- 0 Calma -- -- 0 -- -- --
2020-11-10 00:00:00 -- 0 Calma -- -- 0 -- -- --
2020-11-09 23:00:00 -- 0 Calma 0 Calma 0 -- -- --
2020-11-09 22:00:00 -- 0 Calma -- -- 0 -- -- --
2020-11-09 21:00:00 -- 0 Calma 0 Calma 0 -- -- --
2020-11-09 20:00:00 -- 0 Calma -- -- 0 -- -- --
2020-11-09 19:00:00 -- 0 Calma -- -- -- -- -- --
2020-11-09 18:00:00 -- 0 Calma -- -- -- -- -- --
2020-11-09 17:00:00 -- 107 Norte -- -- -- -- -- --
2020-11-09 16:00:00 -- 8 Este -- -- 0.3 -- -- --
2020-11-09 15:00:00 -- 0 Calma -- -- 0 -- -- --
2020-11-09 14:00:00 -- 0 Calma -- -- 0 -- -- --
2020-11-09 13:00:00 -- 0 Calma -- -- 0 -- -- --
2020-11-09 12:00:00 -- 0 Calma -- -- 0 -- -- --
2020-11-09 11:00:00 -- 0 Calma -- -- -- -- -- --
2020-11-09 10:00:00 -- 0 Calma -- -- -- -- -- --
2020-11-09 09:00:00 -- 0 Calma -- -- -- -- -- --
2020-11-09 08:00:00 -- 0 Calma -- -- -- -- -- --
2020-11-09 07:00:00 -- 0 Calma -- -- -- -- -- --
2020-11-09 06:00:00 -- 0 Calma -- -- -- -- -- --
2020-11-09 05:00:00 -- 0 Calma 100 Nordeste -- -- -- --
2020-11-09 04:00:00 3.1 7 Sur 14 Sur 0 858.3 -- 96
2020-11-09 03:00:00 3.1 9 Sur 15 Sur 0 858.5 -- 95
2020-11-09 02:00:00 3.6 11 Sur 21 Sudeste 0 858.9 -- 94
2020-11-09 01:00:00 4.5 14 Sur 26 Sudeste 0 859 -- 88
2020-11-09 00:00:00 4.8 11 Sur 21 Sur 0 859.1 -- 91
2020-11-08 23:00:00 3.9 7 Sur 13 Sur 0 859.4 -- 94
2020-11-08 22:00:00 3.3 8 Sur 18 Sudeste 0 859.5 -- 92
2020-11-08 21:00:00 3.6 8 Sur 26 Sur 0 859.7 -- 93
2020-11-08 20:00:00 3.8 14 Sur 26 Sur 0 859.3 -- 90
2020-11-08 19:00:00 3.8 14 Sur 26 Sur 0 859.3 -- 90
2020-11-08 18:00:00 2.8 12 Sur 23 Sur 0 858.9 -- 87
2020-11-08 17:00:00 2.8 12 Sur 25 Sudeste 0 859.3 -- 87
2020-11-08 16:00:00 3.1 14 Sur 26 Sur 0 859.2 -- 85
2020-11-08 15:00:00 2.8 12 Sur 27 Sur 0 859.2 -- 80
2020-11-08 14:00:00 2.6 15 Sur 145 Norte 0 859.1 -- 77
2020-11-08 13:00:00 2.8 15 Sur 32 Sur 0 859.6 -- 83
2020-11-08 12:00:00 3 13 Sur 34 Sur 0 860 -- 86
2020-11-08 11:00:00 2.2 18 Sur 35 Sur 0 860.2 -- 90
2020-11-08 10:00:00 2.1 18 Sur 34 Sudeste 0 860.2 -- 91
2020-11-08 09:00:00 2.7 16 Sur 30 Sudeste 0 859.9 -- 90
2020-11-08 08:00:00 2.2 14 Sur 24 Sur 0 859.4 -- 91
2020-11-08 07:00:00 2 7 Sur 15 Sur 0 859.5 -- 95
2020-11-08 06:00:00 1.4 7 Sur 18 Sur 0 859.7 -- 95
2020-11-08 05:00:00 1.3 8 Sur 17 Sur 0 859.7 -- 93
2020-11-08 04:00:00 1 10 Sur 17 Sur 0 860 -- 96
2020-11-08 03:00:00 0.7 7 Sur 17 Sur 0 860.4 -- 96
2020-11-08 02:00:00 0.5 8 Sur 18 Sur 0 860.4 -- 96
2020-11-08 01:00:00 1.3 5 Sur 19 Sur 0 860.3 -- 96
2020-11-08 00:00:00 0.9 7 Sur 16 Sur 0 860.3 -- 96
2020-11-07 23:00:00 0.7 11 Sudoeste 17 Sudoeste 0 860.1 -- 96
2020-11-07 22:00:00 1.4 0 Calma 12 Sudoeste 0 859.9 -- 96
2020-11-07 21:00:00 0.6 0 Calma 7 Sudoeste 0 859.6 -- 95
2020-11-07 20:00:00 -0.4 0 Calma -- -- 0 859.5 -- 95
2020-11-07 19:00:00 -9.9 0 Calma 14 Sudoeste 0 858.9 -- 93
2020-11-07 18:00:00 -3.8 0 Calma -- -- 0 858.2 -- 92
2020-11-07 17:00:00 -2.1 0 Calma 9 Sudoeste 0 857.8 -- 91
2020-11-07 16:00:00 -4.5 0 Calma -- -- 0 857.1 -- 88
2020-11-07 15:00:00 -7.6 0 Calma 5 Sudoeste 0 856.9 -- 92
2020-11-07 14:00:00 -8.2 0 Calma 9 Sudoeste 0 856.2 -- 94
2020-11-07 13:00:00 -2.5 0 Calma 22 Sudoeste 0 855.8 -- 95
2020-11-07 12:00:00 -0.3 0 Calma 21 Sur 0 855.4 -- 95
2020-11-07 11:00:00 2.1 8 Sur 31 Sur 0 854.8 -- 95
2020-11-07 10:00:00 2.9 8 Sur 30 Sur 0 854 -- 95
2020-11-07 09:00:00 2.4 8 Sur 29 Sur 0 852.9 -- 95
2020-11-07 08:00:00 2.5 5 Sur 35 Sudeste 0 852.4 -- 95
2020-11-07 07:00:00 6.3 9 Sur 35 Sudeste 0 852.2 -- 98
2020-11-07 06:00:00 6.4 18 Sur 39 Sur 0 852.5 -- 95
2020-11-07 05:00:00 5.9 17 Sur 39 Sur 0.1 852.3 -- 97
2020-11-07 04:00:00 6.1 15 Sur 52 Sur 0 851.4 -- 96
2020-11-07 03:00:00 6.3 18 Sur 38 Sur 9.6 853.4 -- 96
2020-11-07 02:00:00 7.9 14 Sur 53 Sur 8.5 853.9 -- 99
2020-11-07 01:00:00 9.1 26 Sur 55 Sur 0.5 853.6 -- 95
2020-11-07 00:00:00 9.7 30 Sur 65 Sur 0.1 853.6 -- 89
2020-11-06 23:00:00 9.7 28 Sur 68 Sur 0.5 854.1 -- 91
2020-11-06 22:00:00 9.3 35 Sur 64 Sudeste 1.6 854 -- 91
2020-11-06 21:00:00 10 25 Sur 63 Sur 1.4 853.6 -- 92
2020-11-06 20:00:00 11.2 14 Sur 46 Sudeste 0 852.2 -- 73
2020-11-06 19:00:00 10.9 20 Sudeste 50 Sudeste 0.2 853.4 -- 82
2020-11-06 18:00:00 11.1 21 Sur 48 Sudeste 0.4 854.5 -- 82
2020-11-06 17:00:00 12.6 18 Sur 48 Sudeste 0 854.3 -- 69
2020-11-06 16:00:00 12.8 17 Sur 48 Sudeste 0 854.6 -- 68
2020-11-06 15:00:00 13.3 17 Sur 48 Sudeste 0 854.9 -- 66
2020-11-06 14:00:00 13.4 22 Sur 48 Sudeste 0 855 -- 65
2020-11-06 13:00:00 13.7 15 Sur 36 Sudoeste 0 856.2 -- 63
2020-11-06 12:00:00 12.7 16 Sur 45 Sur 0 856.3 -- 62
2020-11-06 11:00:00 11.9 13 Sudeste 40 Sudeste 0 856.6 -0.3 68
2020-11-06 10:00:00 10.6 12 Sudeste 41 Sudeste 0 856.5 -- 75
2020-11-06 09:00:00 9.7 14 Sur 40 Sur 0 856.7 -- 76
2020-11-06 08:00:00 8.5 18 Sur 34 Sudeste 0 856.9 -- 89
2020-11-06 07:00:00 8.7 14 Sur 35 Sur 0 856.9 -- 87
2020-11-06 06:00:00 7.9 19 Sur 42 Sur 0 857.9 -- 95
2020-11-06 05:00:00 8.7 22 Sur 43 Sur 0 857.5 -- 85
2020-11-06 04:00:00 7.8 20 Sur 50 Sur 0 857.2 -- 95
2020-11-06 03:00:00 7.1 20 Sur 37 Sur 0 857.2 -- 99
2020-11-06 02:00:00 8.4 22 Sur 59 Sur 0 856.8 -- 89
2020-11-06 01:00:00 8.9 33 Sur 67 Sur 0 856.4 -- 89
2020-11-06 00:00:00 8.7 25 Sur 48 Sudeste 0.1 -- -- 91
2020-11-05 23:00:00 8.3 15 Sur 37 Sudeste 0 -- -- 92
2020-11-05 22:00:00 7.8 12 Sur 41 Sudeste 0 857.2 -- 91
2020-11-05 21:00:00 7.5 18 Sudeste 55 Sur 0.3 -- -- 92
2020-11-05 20:00:00 7.4 20 Sudeste 57 Sudeste 2.3 -- -- 88
2020-11-05 19:00:00 7.9 19 Sur 54 Sur 2 857 -- 92
2020-11-05 18:00:00 8.3 16 Sudeste 48 Sur 0.7 -- -- 91
2020-11-05 17:00:00 8.4 15 Sudeste 45 Sudeste 0.9 -- -- 90
2020-11-05 16:00:00 7.9 17 Sur 39 Sudeste 1.6 -- -- 93
2020-11-05 15:00:00 8.9 17 Sur 47 Este 0.3 -- -- 86
2020-11-05 14:00:00 9 19 Sudeste 52 Sudeste 0 -- -- 82
2020-11-05 13:00:00 8.6 16 Sudeste 58 Sudeste 0.1 -- -- 82
2020-11-05 12:00:00 8.1 23 Sur 72 Sur 0.2 -- -- 86
2020-11-05 11:00:00 7.7 21 Sur 54 Sudeste 0.2 858 -- 84
2020-11-05 10:00:00 7.2 18 Sudeste 49 Sudeste 0 858.1 -- 80
2020-11-05 09:00:00 6.9 17 Sudeste 52 Sudeste 0 857.9 -- 80
2020-11-05 08:00:00 6.5 17 Sudeste 58 Sudeste 0 -- -- 79
2020-11-05 07:00:00 7.2 15 Sudeste 46 Sudeste 0 -- -- 75
2020-11-05 06:00:00 6.3 11 Sudeste 41 Este 0 -- -- 80
2020-11-05 05:00:00 6.8 8 Este 46 Este 0 -- -- 79
2020-11-05 04:00:00 6.4 10 Sudeste 37 Sudeste 0 -- -- 83
2020-11-05 03:00:00 6 15 Sudeste 44 Sudeste 0.1 -- -- 87
2020-11-05 02:00:00 5.9 15 Sudeste 49 Sudeste 0 -- -- 90
2020-11-05 01:00:00 5.9 16 Sudeste 39 Sudeste 0.2 -- -- 89
2020-11-05 00:00:00 5.1 12 Sudeste 34 Este 2.4 -- -- 92
2020-11-04 23:00:00 5 9 Sudeste 28 Sudeste 0.8 -- -- 91
2020-11-04 22:00:00 4.6 9 Sudeste 36 Sudeste 0.8 856.9 -- 92
2020-11-04 21:00:00 4.5 13 Sudeste 33 Sudeste 0.4 -- -- 92
2020-11-04 20:00:00 4.7 12 Sudeste 30 Sudeste 0.8 855.8 -- 91
2020-11-04 19:00:00 4.7 10 Sudeste 32 Sudeste 1.3 -- -- 93
2020-11-04 18:00:00 4.6 7 Sudeste 28 Sudeste 0.1 -- -- 92
2020-11-04 17:00:00 5.8 11 Sudeste 40 Sudeste 0 -- -- 76
2020-11-04 16:00:00 6.4 9 Sur 25 Sudoeste 0 -- -- 74
2020-11-04 15:00:00 8.5 11 Sur 23 Sudoeste 0 -- -- 64
2020-11-04 14:00:00 6.4 12 Sur 24 Sur 0 -- -- 73
2020-11-04 13:00:00 5.8 7 Sudeste 16 Sur 0 -- -- 76
2020-11-04 12:00:00 5.5 0 Calma 10 Noroeste 0 -- -- 94
2020-11-04 11:00:00 4.4 0 Calma 8 Norte 0 -- -- 99
2020-11-04 10:00:00 3.9 0 Calma 9 Sudoeste 0 -- -- 99
2020-11-04 09:00:00 3.4 0 Calma 9 Norte 0 -- -- 99
2020-11-04 08:00:00 3.3 0 Calma 13 Sur 0 -- -- 99
2020-11-04 07:00:00 3.1 0 Calma 9 Norte 0.1 -- -- 99
2020-11-04 06:00:00 3.8 0 Calma 12 Noroeste 0 -- -- 99
2020-11-04 05:00:00 4.2 0 Calma 11 Noroeste 0 -- -- 99
2020-11-04 04:00:00 4 0 Calma 10 Norte 0 -- -- 99
2020-11-04 03:00:00 3.7 0 Calma 7 Sur 0.1 -- -- 99
2020-11-04 02:00:00 4.4 0 Calma 10 Norte 0 -- -- 99
2020-11-04 01:00:00 4.7 3 Norte 9 Norte 0 -- -- 99
2020-11-04 00:00:00 4.9 0 Calma 5 Norte 0 -- -- 99
2020-11-03 23:00:00 5.1 0 Calma 4 Sur 0 -- -- 99
2020-11-03 22:00:00 5.2 0 Calma 9 Sur 0 -- -- 99
2020-11-03 21:00:00 5.6 0 Calma 9 Sur 0 -- -- 99
2020-11-03 20:00:00 6 0 Calma 10 Norte 0.1 863.1 -- 99
2020-11-03 19:00:00 6.3 0 Calma -- -- 0.7 863.5 -- 99
2020-11-03 18:00:00 7 0 Calma -- -- 0.1 863.1 -- 99
2020-11-03 17:00:00 7.4 0 Calma -- -- 0.4 862.7 -- 99
2020-11-03 16:00:00 7.8 0 Calma -- -- 0.1 862.9 -- 99
2020-11-03 15:00:00 8 0 Calma -- -- 0.2 863.1 -- 99
2020-11-03 14:00:00 7.6 0 Calma 0 Calma 1 863.2 -- 99
2020-11-03 13:00:00 8.6 0 Calma 0 Calma 0.1 863.8 -- 99
2020-11-03 12:00:00 9.5 0 Calma 0 Calma 0.1 863.7 -- 96
2020-11-03 11:00:00 9.5 0 Calma 0 Calma 0.4 863.7 -- 99
2020-11-03 10:00:00 9.3 0 Calma 0 Calma 0 863.3 -- 99
2020-11-03 09:00:00 9.3 0 Calma 3 Norte 0 862.6 -- 99
2020-11-03 08:00:00 8.7 0 Calma 4 Norte 0.3 862.2 -- 99
2020-11-03 07:00:00 9.5 0 Calma 5 Norte 0.9 862.3 -- 99
2020-11-03 06:00:00 10 0 Calma 9 Norte 0 862.1 -- 97
2020-11-03 05:00:00 10.1 0 Calma 16 Norte 0 861.8 -- 96
2020-11-03 04:00:00 10.4 0 Calma 14 Este 0 862.2 -- 93
2020-11-03 03:00:00 10.6 2 Norte 15 Noroeste 0 862.3 -- 92
2020-11-03 02:00:00 10.4 6 Norte 14 Nordeste 0 862.1 -- 92
2020-11-03 01:00:00 10.1 2 Noroeste 9 Norte 0 862.3 -- 90
2020-11-03 00:00:00 10.3 0 Calma 11 Norte 0 862.5 -- 89
2020-11-02 23:00:00 10.4 3 Norte 14 Norte 0 862.6 -- 85
2020-11-02 22:00:00 10.5 0 Calma 10 Este 0 862.8 -- 85
2020-11-02 21:00:00 10.4 0 Calma 11 Nordeste 0 862.9 -- 96
2020-11-02 20:00:00 10.9 0 Calma 12 Norte 0 862.7 -- 95
2020-11-02 19:00:00 11.1 5 Norte 10 Norte 0 862.2 -- 92
2020-11-02 18:00:00 12.3 0 Calma 8 Nordeste 0 861.8 -- 85
2020-11-02 17:00:00 14 3 Norte 10 Noroeste 0 861.6 -- 80
2020-11-02 16:00:00 14.5 3 Norte 14 Norte 0 861.3 -- 75
2020-11-02 15:00:00 16 4 Norte 14 Norte 0 861.7 -- 72
2020-11-02 14:00:00 14.8 6 Norte 17 Norte 0 862.3 -- 75
2020-11-02 13:00:00 14.9 5 Norte 17 Noroeste 0 862.6 -- 79
2020-11-02 12:00:00 12.9 7 Norte 21 Norte 0 863.2 -- 86
2020-11-02 11:00:00 14.6 8 Norte 18 Norte 0 862.9 -- 82
2020-11-02 10:00:00 12.5 5 Norte 12 Norte 0 862.7 -- 89
2020-11-02 09:00:00 10.3 6 Norte 10 Noroeste 0 862.3 -- 96
2020-11-02 08:00:00 8.9 5 Norte 8 Norte 0 861.9 -- 92
2020-11-02 07:00:00 9.3 4 Norte 8 Norte 0 861.8 -- 89
2020-11-02 06:00:00 9.3 3 Norte 8 Nordeste 0 861.8 -- 88
2020-11-02 05:00:00 10.2 0 Calma 5 Sudeste 0 861.7 -- 81
2020-11-02 04:00:00 10.3 3 Sur 7 Sur 0 861.9 -- 80
2020-11-02 03:00:00 9.5 5 Sur 6 Sur 0 862.1 -- 81
2020-11-02 02:00:00 10 4 Sur 6 Sudeste 0 862.3 -- 77
2020-11-02 01:00:00 9.7 0 Calma 5 Norte 0 862.6 -- 79
2020-11-02 00:00:00 9.8 4 Nordeste 8 Nordeste 0 863 -- 78
2020-11-01 23:00:00 9.6 2 Norte 6 Nordeste 0 863.3 -- 78
2020-11-01 22:00:00 9.6 2 Norte 5 Norte 0 863.2 -- 82
2020-11-01 21:00:00 10.1 0 Calma 8 Sudeste 0 863.3 -- 81
2020-11-01 20:00:00 10.1 4 Sur 8 Sur 0 863.1 -- 82
2020-11-01 19:00:00 11.2 0 Calma 6 Sudeste 0 863 -- 77
2020-11-01 18:00:00 14 3 Sudeste 7 Sur 0 863 -- 64
2020-11-01 17:00:00 16.1 0 Calma 12 Noroeste 0 863.3 -- 53
2020-11-01 16:00:00 17.7 3 Noroeste 13 Norte 0 863.3 -- 50
2020-11-01 15:00:00 16.9 2 Noroeste 8 Oeste 0 863.3 -- 53
2020-11-01 14:00:00 16.5 3 Noroeste 13 Noroeste 0 863.7 -- 51
2020-11-01 13:00:00 16 4 Norte 14 Norte 0 864.2 -- 50
2020-11-01 12:00:00 16.5 4 Noroeste 13 Noroeste 0 864.6 -- 48
2020-11-01 11:00:00 15.3 3 Nordeste 9 Nordeste 0 864.7 -- 49
2020-11-01 10:00:00 14 5 Nordeste 9 Este 0 864.5 -- 60
2020-11-01 09:00:00 9.1 0 Calma 7 Este 0 864 -- 76
2020-11-01 08:00:00 9.1 6 Este 12 Este 0 863.8 -- 76
2020-11-01 07:00:00 6.9 0 Calma 9 Norte 0 863.8 -- 91
2020-11-01 06:00:00 8.3 3 Norte 10 Sudoeste 0 863.7 -- 82
2020-11-01 05:00:00 7.9 0 Calma 5 Norte 0 863.5 -- 83
2020-11-01 04:00:00 7.7 0 Calma 8 Este 0 863.8 -- 89
2020-11-01 03:00:00 8.1 3 Este 9 Este 0 864.2 -- 85
2020-11-01 02:00:00 8.5 3 Este 8 Nordeste 0 864.5 -- 86
2020-11-01 01:00:00 8.4 5 Nordeste 12 Nordeste 0 865.1 -- 83
2020-11-01 00:00:00 8.9 4 Nordeste 10 Nordeste 0 864.9 -- 76
2020-10-31 23:00:00 8.7 0 Calma 6 Sudeste 0 864.7 -- 79
2020-10-31 22:00:00 8.9 3 Nordeste 7 Este 0 864.7 -- 79
2020-10-31 21:00:00 9.1 0 Calma 7 Este 0 864.4 -- 80
2020-10-31 20:00:00 9.3 2 Norte 5 Nordeste 0 864.7 -- 75
2020-10-31 19:00:00 10.6 0 Calma 6 Oeste 0 864.1 -- 68
2020-10-31 18:00:00 12.5 0 Calma 11 Sur 0 864 -- 59
2020-10-31 17:00:00 15 0 Calma 16 Noroeste 0 863.8 -- 56
2020-10-31 16:00:00 16.5 6 Noroeste 23 Noroeste 0 864.3 -- 48
2020-10-31 15:00:00 17.2 3 Norte 22 Oeste 0 864 -- 48
2020-10-31 14:00:00 16.7 5 Norte 22 Noroeste 0 864.1 -- 49
2020-10-31 13:00:00 17.3 6 Sur 15 Sur 0 864.4 -- 45
2020-10-31 12:00:00 16 3 Este 12 Noroeste 0 865.1 -- 54
2020-10-31 11:00:00 13.6 5 Norte 15 Norte 0 865.4 -- 61
2020-10-31 10:00:00 12.4 5 Norte 9 Norte 0 865.3 -- 63
2020-10-31 09:00:00 8.7 3 Nordeste 8 Norte 0 864.9 -- 74
2020-10-31 08:00:00 8.6 4 Nordeste 14 Nordeste 0 864.4 -- 73
2020-10-31 07:00:00 10.4 0 Calma 12 Este 0 864.2 -- 67
2020-10-31 06:00:00 7.1 3 Norte 8 Norte 0 864.2 -- 71
2020-10-31 05:00:00 7.3 0 Calma 7 Sudeste 0 864 -- 72
2020-10-31 04:00:00 8 5 Sur 8 Sur 0 863.9 -- 76
2020-10-31 03:00:00 8.6 5 Sur 7 Sur 0 864.2 -- 69
2020-10-31 02:00:00 8.3 4 Sudeste 7 Sur 0 864.2 -- 71
2020-10-31 01:00:00 8.7 4 Sur 7 Sudoeste 0 864.5 -- 73
2020-10-31 00:00:00 8.2 4 Sur 5 Sur 0 864.5 -- 72
2020-10-30 23:00:00 8.2 3 Sur 9 Sudeste 0 864.8 -- 76
2020-10-30 22:00:00 7.9 5 Sur 8 Sur 0 864.8 -- 74
2020-10-30 21:00:00 7.9 5 Sudeste 8 Sudeste 0 864.7 -- 77
2020-10-30 20:00:00 8.3 6 Sur 9 Sur 0 864.6 -- 74
2020-10-30 19:00:00 9.2 2 Norte 6 Este 0 864.2 -- 76
2020-10-30 18:00:00 11.8 0 Calma 6 Norte 0 864.1 -- 68
2020-10-30 17:00:00 14.7 2 Norte 11 Noroeste 0 864 -- 60
2020-10-30 16:00:00 16.1 4 Norte 13 Noroeste 0 864.1 -- 55
2020-10-30 15:00:00 16 4 Norte 14 Noroeste 0 864.3 -- 54
2020-10-30 14:00:00 15.7 4 Norte 14 Norte 0 864.5 -- 55
2020-10-30 13:00:00 14.8 5 Norte 17 Norte 0 865 -- 54
2020-10-30 12:00:00 13.4 7 Norte 17 Nordeste 0 865.2 -- 59
2020-10-30 11:00:00 11.9 6 Norte 14 Nordeste 0 864.7 -- 59
2020-10-30 10:00:00 10.6 5 Norte 12 Norte 0 865.1 -- 56
2020-10-30 09:00:00 5.6 5 Norte 8 Norte 0 864.9 -- 67
2020-10-30 08:00:00 4.9 5 Norte 8 Norte 0 864.6 -- 69
2020-10-30 07:00:00 4.7 3 Norte 8 Norte 0 864.6 -- 82
2020-10-30 06:00:00 5 4 Norte 7 Noroeste 0 864.7 -- 70
2020-10-30 05:00:00 5.2 5 Norte 7 Norte 0 864.3 -- 53
2020-10-30 04:00:00 5.5 4 Norte 7 Norte 0 864.4 -- 44
2020-10-30 03:00:00 5.9 0 Calma 6 Sur 0 864.4 -- 41
2020-10-30 02:00:00 6.1 4 Sur 8 Sur 0 864.5 -- 41
2020-10-30 01:00:00 6.3 0 Calma 6 Sur 0 864.4 -- 42
2020-10-30 00:00:00 6.2 5 Sur 9 Sudeste 0 864.7 -- 65
2020-10-29 23:00:00 5.6 8 Sur 10 Sur 0 865.1 -- 68
2020-10-29 22:00:00 6.4 6 Sur 9 Sur 0 865 -- 90
2020-10-29 21:00:00 6.2 6 Sur 10 Sur 0 864.6 -- 92
2020-10-29 20:00:00 5.6 6 Sur 10 Sur 0 864.8 -- 93
2020-10-29 19:00:00 6.7 6 Sur 10 Sudeste 0 864.4 -- 93
2020-10-29 18:00:00 9.7 6 Sur 10 Sur 0 863.9 -- 87
2020-10-29 17:00:00 12.6 5 Sur 13 Sur 0 864.1 -- 76
2020-10-29 16:00:00 14 7 Sudoeste 12 Sudoeste 0 863.9 -- 71
2020-10-29 15:00:00 14.4 6 Sur 13 Sur 0 863.8 -- 65
2020-10-29 14:00:00 9.1 6 Sur 12 Sur 0 864 -- 97
2020-10-29 13:00:00 6.9 8 Sur 18 Sur 0 864.5 -- 99
2020-10-29 12:00:00 8.4 3 Sudoeste 14 Sudoeste 0 864.5 -- 99
2020-10-29 11:00:00 5.8 10 Sudoeste 24 Sur 0 864.7 -- 99
2020-10-29 10:00:00 4.8 15 Sur 26 Sur 0 864.5 -- 99
2020-10-29 09:00:00 3.4 9 Sur 12 Sur 0 864.5 -- 99
2020-10-29 08:00:00 2 6 Sur 10 Sur 0.1 863.9 -- 99
2020-10-29 07:00:00 1.9 7 Sur 10 Sur 0 863.4 -- 98
2020-10-29 06:00:00 3.5 3 Norte 9 Nordeste 0 863.1 -- 98
2020-10-29 05:00:00 5 2 Norte 12 Norte 0 862.7 -- 99
2020-10-29 04:00:00 3.4 3 Norte 8 Sur 0 862.8 -- 98
2020-10-29 03:00:00 5 0 Calma 6 Norte 0 862.8 -- 97
2020-10-29 02:00:00 5.2 3 Norte 10 Este 0 863 -- 96
2020-10-29 01:00:00 6.6 2 Norte 7 Norte 0 862.9 -- 96
2020-10-29 00:00:00 5.9 3 Norte 8 Norte 0 862.9 -- 94
2020-10-28 23:00:00 8.4 3 Sudeste 12 Norte 0 862.3 -- 92
2020-10-28 22:00:00 8.7 3 Noroeste 15 Norte 0 862.5 -- 95
2020-10-28 21:00:00 9.1 3 Nordeste 9 Norte 0 862.3 -- 95
2020-10-28 20:00:00 9.3 0 Calma 12 Nordeste 0 862 -- 94
2020-10-28 19:00:00 9.4 0 Calma 15 Noroeste 0 861.7 -- 94
2020-10-28 18:00:00 10 3 Noroeste 14 Oeste 0 861.2 -- 96
2020-10-28 17:00:00 10.5 4 Noroeste 18 Oeste 0 861.1 -- 95
2020-10-28 16:00:00 10.7 5 Sur 14 Sur 0 860.3 -- 93
2020-10-28 15:00:00 9.8 4 Sudeste 15 Sudoeste 0 860.4 -- 94
2020-10-28 14:00:00 9.5 4 Sur 20 Oeste 0 860.7 -- 96
2020-10-28 13:00:00 10.6 0 Calma 17 Sur 0.1 860.7 -- 96
2020-10-28 12:00:00 9.4 3 Sur 14 Sur 0.3 860.7 -- 98
2020-10-28 11:00:00 9 3 Sudoeste 17 Oeste 0.2 860.3 -- 98
2020-10-28 10:00:00 9.8 4 Noroeste 18 Norte 0 860 -- 98
2020-10-28 09:00:00 9 4 Norte 19 Norte 0 859.4 -- 99
2020-10-28 08:00:00 8.9 5 Noroeste 24 Oeste 0.6 858.6 -- 99
2020-10-28 07:00:00 9.2 5 Oeste 23 Oeste 0.8 858.3 -- 99
2020-10-28 06:00:00 9.1 5 Noroeste 16 Oeste 0.8 857.8 -- 99
2020-10-28 05:00:00 8.4 2 Nordeste 9 Oeste 0.2 857.4 -- 99
2020-10-28 04:00:00 8.3 3 Oeste 9 Nordeste 0.5 857.8 -- 99
2020-10-28 03:00:00 8.1 0 Calma 14 Sudeste 0.2 857.8 -- 98
2020-10-28 02:00:00 7.9 0 Calma 9 Nordeste 0 857.9 -- 97
2020-10-28 01:00:00 7.4 4 Sudeste 14 Este 0 858.1 -- 95
2020-10-28 00:00:00 7 0 Calma 14 Este 0 858.4 -- 94